sensor_id;sensor_type;location;lat;lon;timestamp;temperature;humidity
40696;DHT22;40425;51.102;17.208;2022-08-20T00:01:29;21.40;99.90
40696;DHT22;40425;51.102;17.208;2022-08-20T00:06:30;21.40;99.90
40696;DHT22;40425;51.102;17.208;2022-08-20T00:11:31;21.40;99.90
40696;DHT22;40425;51.102;17.208;2022-08-20T00:16:35;21.20;99.90
40696;DHT22;40425;51.102;17.208;2022-08-20T00:21:36;21.20;99.90
40696;DHT22;40425;51.102;17.208;2022-08-20T00:26:37;21.10;99.90
40696;DHT22;40425;51.102;17.208;2022-08-20T00:31:38;21.10;99.90
40696;DHT22;40425;51.102;17.208;2022-08-20T00:36:39;21.10;99.90
40696;DHT22;40425;51.102;17.208;2022-08-20T00:41:40;21.00;99.90
40696;DHT22;40425;51.102;17.208;2022-08-20T00:46:42;20.90;99.90
40696;DHT22;40425;51.102;17.208;2022-08-20T00:51:46;20.90;99.90
40696;DHT22;40425;51.102;17.208;2022-08-20T00:57:03;20.90;99.90
40696;DHT22;40425;51.102;17.208;2022-08-20T01:02:08;20.80;99.90
40696;DHT22;40425;51.102;17.208;2022-08-20T01:07:10;20.60;99.90
40696;DHT22;40425;51.102;17.208;2022-08-20T01:12:12;20.50;99.90
40696;DHT22;40425;51.102;17.208;2022-08-20T01:17:20;20.50;99.90
40696;DHT22;40425;51.102;17.208;2022-08-20T01:22:34;20.70;99.90
40696;DHT22;40425;51.102;17.208;2022-08-20T01:27:56;20.70;99.90
40696;DHT22;40425;51.102;17.208;2022-08-20T01:32:57;20.70;99.90
40696;DHT22;40425;51.102;17.208;2022-08-20T01:37:57;20.50;99.90
40696;DHT22;40425;51.102;17.208;2022-08-20T01:42:58;20.30;99.90
40696;DHT22;40425;51.102;17.208;2022-08-20T01:47:59;20.30;99.90
40696;DHT22;40425;51.102;17.208;2022-08-20T01:58:05;20.30;99.90
40696;DHT22;40425;51.102;17.208;2022-08-20T02:03:06;20.40;99.90
40696;DHT22;40425;51.102;17.208;2022-08-20T02:08:08;20.40;99.90
40696;DHT22;40425;51.102;17.208;2022-08-20T02:13:08;20.40;99.90
40696;DHT22;40425;51.102;17.208;2022-08-20T02:18:12;20.40;99.90
40696;DHT22;40425;51.102;17.208;2022-08-20T02:23:14;20.40;99.90
40696;DHT22;40425;51.102;17.208;2022-08-20T02:28:18;20.30;99.90
40696;DHT22;40425;51.102;17.208;2022-08-20T02:33:21;20.10;99.90
40696;DHT22;40425;51.102;17.208;2022-08-20T02:38:23;20.00;99.90
40696;DHT22;40425;51.102;17.208;2022-08-20T02:43:24;20.00;99.90
40696;DHT22;40425;51.102;17.208;2022-08-20T02:48:25;19.90;99.90
40696;DHT22;40425;51.102;17.208;2022-08-20T02:53:28;19.70;99.90
40696;DHT22;40425;51.102;17.208;2022-08-20T02:58:29;19.80;99.90
40696;DHT22;40425;51.102;17.208;2022-08-20T03:03:30;19.70;99.90
40696;DHT22;40425;51.102;17.208;2022-08-20T03:08:31;19.80;99.90
40696;DHT22;40425;51.102;17.208;2022-08-20T03:13:33;19.90;99.90
40696;DHT22;40425;51.102;17.208;2022-08-20T03:18:38;19.90;99.90
40696;DHT22;40425;51.102;17.208;2022-08-20T03:23:39;20.00;99.90
40696;DHT22;40425;51.102;17.208;2022-08-20T03:28:41;20.10;99.90
40696;DHT22;40425;51.102;17.208;2022-08-20T03:33:42;20.20;99.90
40696;DHT22;40425;51.102;17.208;2022-08-20T03:38:43;20.10;99.90
40696;DHT22;40425;51.102;17.208;2022-08-20T03:43:45;20.10;99.90
40696;DHT22;40425;51.102;17.208;2022-08-20T03:48:45;20.20;99.90
40696;DHT22;40425;51.102;17.208;2022-08-20T03:53:46;20.00;99.90
40696;DHT22;40425;51.102;17.208;2022-08-20T03:58:47;19.90;99.90
40696;DHT22;40425;51.102;17.208;2022-08-20T04:03:48;20.00;99.90
40696;DHT22;40425;51.102;17.208;2022-08-20T04:08:49;20.10;99.90
40696;DHT22;40425;51.102;17.208;2022-08-20T04:13:51;20.20;99.90
40696;DHT22;40425;51.102;17.208;2022-08-20T04:18:52;20.20;99.90
40696;DHT22;40425;51.102;17.208;2022-08-20T04:23:52;20.30;99.90
40696;DHT22;40425;51.102;17.208;2022-08-20T04:28:54;20.30;99.90
40696;DHT22;40425;51.102;17.208;2022-08-20T04:33:55;20.40;99.90
40696;DHT22;40425;51.102;17.208;2022-08-20T04:38:56;20.50;99.90
40696;DHT22;40425;51.102;17.208;2022-08-20T04:43:57;20.60;99.90
40696;DHT22;40425;51.102;17.208;2022-08-20T04:48:58;20.70;99.90
40696;DHT22;40425;51.102;17.208;2022-08-20T04:54:01;20.70;99.90
40696;DHT22;40425;51.102;17.208;2022-08-20T04:59:04;20.70;99.90
40696;DHT22;40425;51.102;17.208;2022-08-20T05:04:05;20.80;99.90
40696;DHT22;40425;51.102;17.208;2022-08-20T05:09:06;20.90;99.90
40696;DHT22;40425;51.102;17.208;2022-08-20T05:14:07;20.80;99.90
40696;DHT22;40425;51.102;17.208;2022-08-20T05:19:11;20.70;99.90
40696;DHT22;40425;51.102;17.208;2022-08-20T05:24:12;20.80;99.90
40696;DHT22;40425;51.102;17.208;2022-08-20T05:29:13;21.00;99.90
40696;DHT22;40425;51.102;17.208;2022-08-20T05:34:14;21.00;99.90
40696;DHT22;40425;51.102;17.208;2022-08-20T05:39:19;21.20;99.90
40696;DHT22;40425;51.102;17.208;2022-08-20T05:44:21;21.40;99.90
40696;DHT22;40425;51.102;17.208;2022-08-20T05:49:22;21.60;99.90
40696;DHT22;40425;51.102;17.208;2022-08-20T05:54:23;21.80;99.90
40696;DHT22;40425;51.102;17.208;2022-08-20T05:59:25;22.10;99.90
40696;DHT22;40425;51.102;17.208;2022-08-20T06:04:27;22.30;99.90
40696;DHT22;40425;51.102;17.208;2022-08-20T06:09:30;22.50;99.90
40696;DHT22;40425;51.102;17.208;2022-08-20T06:14:31;22.60;99.90
40696;DHT22;40425;51.102;17.208;2022-08-20T06:19:34;22.90;99.90
40696;DHT22;40425;51.102;17.208;2022-08-20T06:24:35;23.10;99.90
40696;DHT22;40425;51.102;17.208;2022-08-20T06:29:36;23.30;99.90
40696;DHT22;40425;51.102;17.208;2022-08-20T06:34:37;23.40;99.90
40696;DHT22;40425;51.102;17.208;2022-08-20T06:39:37;23.20;99.90
40696;DHT22;40425;51.102;17.208;2022-08-20T06:44:38;23.30;99.90
40696;DHT22;40425;51.102;17.208;2022-08-20T06:49:39;23.20;99.90
40696;DHT22;40425;51.102;17.208;2022-08-20T06:54:40;23.40;99.90
40696;DHT22;40425;51.102;17.208;2022-08-20T06:59:41;23.50;99.90
40696;DHT22;40425;51.102;17.208;2022-08-20T07:04:42;23.20;99.90
40696;DHT22;40425;51.102;17.208;2022-08-20T07:09:43;23.00;99.90
40696;DHT22;40425;51.102;17.208;2022-08-20T07:14:44;23.20;99.90
40696;DHT22;40425;51.102;17.208;2022-08-20T07:19:45;23.00;99.90
40696;DHT22;40425;51.102;17.208;2022-08-20T07:24:46;22.70;99.90
40696;DHT22;40425;51.102;17.208;2022-08-20T07:29:47;22.80;99.90
40696;DHT22;40425;51.102;17.208;2022-08-20T07:35:07;23.00;99.90
40696;DHT22;40425;51.102;17.208;2022-08-20T07:40:15;22.70;99.90
40696;DHT22;40425;51.102;17.208;2022-08-20T07:45:16;22.90;99.90
40696;DHT22;40425;51.102;17.208;2022-08-20T07:50:24;23.00;99.90
40696;DHT22;40425;51.102;17.208;2022-08-20T07:55:26;23.00;99.90
40696;DHT22;40425;51.102;17.208;2022-08-20T08:00:27;23.00;99.90
40696;DHT22;40425;51.102;17.208;2022-08-20T08:05:29;23.20;99.90
40696;DHT22;40425;51.102;17.208;2022-08-20T08:10:31;23.20;99.90
40696;DHT22;40425;51.102;17.208;2022-08-20T08:15:36;23.30;99.90
40696;DHT22;40425;51.102;17.208;2022-08-20T08:20:42;23.50;99.90
40696;DHT22;40425;51.102;17.208;2022-08-20T08:25:43;23.40;99.90
40696;DHT22;40425;51.102;17.208;2022-08-20T08:30:46;23.80;99.90
40696;DHT22;40425;51.102;17.208;2022-08-20T08:35:47;24.60;99.90
40696;DHT22;40425;51.102;17.208;2022-08-20T08:40:49;24.30;99.90
40696;DHT22;40425;51.102;17.208;2022-08-20T08:46:00;24.10;99.90
40696;DHT22;40425;51.102;17.208;2022-08-20T08:51:04;24.50;99.90
40696;DHT22;40425;51.102;17.208;2022-08-20T08:56:13;25.20;99.90
40696;DHT22;40425;51.102;17.208;2022-08-20T09:01:17;25.40;99.90
40696;DHT22;40425;51.102;17.208;2022-08-20T09:06:22;25.30;99.90
40696;DHT22;40425;51.102;17.208;2022-08-20T09:11:24;25.40;99.90
40696;DHT22;40425;51.102;17.208;2022-08-20T09:16:25;25.40;99.90
40696;DHT22;40425;51.102;17.208;2022-08-20T09:21:26;25.70;99.90
40696;DHT22;40425;51.102;17.208;2022-08-20T09:26:27;25.80;99.90
40696;DHT22;40425;51.102;17.208;2022-08-20T09:31:28;26.10;99.90
40696;DHT22;40425;51.102;17.208;2022-08-20T09:36:29;25.50;99.90
40696;DHT22;40425;51.102;17.208;2022-08-20T09:41:30;25.80;99.90
40696;DHT22;40425;51.102;17.208;2022-08-20T09:46:31;26.10;99.90
40696;DHT22;40425;51.102;17.208;2022-08-20T09:51:32;26.40;99.90
40696;DHT22;40425;51.102;17.208;2022-08-20T09:56:33;26.40;99.90
40696;DHT22;40425;51.102;17.208;2022-08-20T10:01:36;26.60;99.90
40696;DHT22;40425;51.102;17.208;2022-08-20T10:06:40;26.70;99.90
40696;DHT22;40425;51.102;17.208;2022-08-20T10:11:42;26.40;99.90
40696;DHT22;40425;51.102;17.208;2022-08-20T10:16:43;26.40;99.90
40696;DHT22;40425;51.102;17.208;2022-08-20T10:21:44;26.70;99.90
40696;DHT22;40425;51.102;17.208;2022-08-20T10:26:45;27.10;99.90
40696;DHT22;40425;51.102;17.208;2022-08-20T10:31:46;26.70;99.90
40696;DHT22;40425;51.102;17.208;2022-08-20T10:36:48;26.70;99.90
40696;DHT22;40425;51.102;17.208;2022-08-20T10:41:49;26.40;99.90
40696;DHT22;40425;51.102;17.208;2022-08-20T10:46:50;26.50;99.90
40696;DHT22;40425;51.102;17.208;2022-08-20T10:51:51;26.90;99.90
40696;DHT22;40425;51.102;17.208;2022-08-20T10:56:51;26.70;99.90
40696;DHT22;40425;51.102;17.208;2022-08-20T11:01:52;26.40;99.90
40696;DHT22;40425;51.102;17.208;2022-08-20T11:06:53;26.50;99.90
40696;DHT22;40425;51.102;17.208;2022-08-20T11:11:55;26.60;99.90
40696;DHT22;40425;51.102;17.208;2022-08-20T11:16:56;26.70;99.90
40696;DHT22;40425;51.102;17.208;2022-08-20T11:21:57;26.60;99.90
40696;DHT22;40425;51.102;17.208;2022-08-20T11:26:58;26.80;99.90
40696;DHT22;40425;51.102;17.208;2022-08-20T11:31:59;26.60;99.90
40696;DHT22;40425;51.102;17.208;2022-08-20T11:37:00;26.70;99.90
40696;DHT22;40425;51.102;17.208;2022-08-20T11:42:00;27.00;99.90
40696;DHT22;40425;51.102;17.208;2022-08-20T11:47:03;27.30;99.90
40696;DHT22;40425;51.102;17.208;2022-08-20T11:52:05;27.00;99.90
40696;DHT22;40425;51.102;17.208;2022-08-20T11:57:06;26.70;99.90
40696;DHT22;40425;51.102;17.208;2022-08-20T12:02:06;27.10;99.90
40696;DHT22;40425;51.102;17.208;2022-08-20T12:07:09;27.00;99.90
40696;DHT22;40425;51.102;17.208;2022-08-20T12:12:11;27.50;99.90
40696;DHT22;40425;51.102;17.208;2022-08-20T12:17:17;27.80;99.90
40696;DHT22;40425;51.102;17.208;2022-08-20T12:22:21;28.40;99.90
40696;DHT22;40425;51.102;17.208;2022-08-20T12:27:25;28.70;99.90
40696;DHT22;40425;51.102;17.208;2022-08-20T12:32:29;28.80;99.90
40696;DHT22;40425;51.102;17.208;2022-08-20T12:37:31;27.80;99.90
40696;DHT22;40425;51.102;17.208;2022-08-20T12:42:31;27.90;99.90
40696;DHT22;40425;51.102;17.208;2022-08-20T12:47:35;27.50;99.90
40696;DHT22;40425;51.102;17.208;2022-08-20T12:52:37;27.60;99.90
40696;DHT22;40425;51.102;17.208;2022-08-20T12:57:42;27.70;99.90
40696;DHT22;40425;51.102;17.208;2022-08-20T13:02:43;27.80;99.90
40696;DHT22;40425;51.102;17.208;2022-08-20T13:07:45;28.20;99.90
40696;DHT22;40425;51.102;17.208;2022-08-20T13:12:47;27.60;99.90
40696;DHT22;40425;51.102;17.208;2022-08-20T13:18:03;27.40;99.90
40696;DHT22;40425;51.102;17.208;2022-08-20T13:23:05;27.60;99.90
40696;DHT22;40425;51.102;17.208;2022-08-20T13:28:05;27.80;99.90
40696;DHT22;40425;51.102;17.208;2022-08-20T13:33:06;27.60;99.90
40696;DHT22;40425;51.102;17.208;2022-08-20T13:38:07;27.80;99.90
40696;DHT22;40425;51.102;17.208;2022-08-20T13:43:08;27.80;99.90
40696;DHT22;40425;51.102;17.208;2022-08-20T13:48:09;27.80;99.90
40696;DHT22;40425;51.102;17.208;2022-08-20T13:53:11;27.70;99.90
40696;DHT22;40425;51.102;17.208;2022-08-20T13:58:11;27.60;99.90
40696;DHT22;40425;51.102;17.208;2022-08-20T14:03:13;27.80;99.90
40696;DHT22;40425;51.102;17.208;2022-08-20T14:08:19;28.00;99.90
40696;DHT22;40425;51.102;17.208;2022-08-20T14:13:23;28.30;99.90
40696;DHT22;40425;51.102;17.208;2022-08-20T14:18:24;28.40;99.90
40696;DHT22;40425;51.102;17.208;2022-08-20T14:23:25;28.20;99.90
40696;DHT22;40425;51.102;17.208;2022-08-20T14:28:27;28.30;99.90
40696;DHT22;40425;51.102;17.208;2022-08-20T14:33:27;27.90;99.90
40696;DHT22;40425;51.102;17.208;2022-08-20T14:38:30;27.70;99.90
40696;DHT22;40425;51.102;17.208;2022-08-20T14:43:31;27.70;99.90
40696;DHT22;40425;51.102;17.208;2022-08-20T14:48:32;27.80;99.90
40696;DHT22;40425;51.102;17.208;2022-08-20T14:53:33;27.80;99.90
40696;DHT22;40425;51.102;17.208;2022-08-20T14:58:34;27.70;99.90
40696;DHT22;40425;51.102;17.208;2022-08-20T15:03:35;27.70;99.90
40696;DHT22;40425;51.102;17.208;2022-08-20T15:08:36;27.50;99.90
40696;DHT22;40425;51.102;17.208;2022-08-20T15:13:37;27.50;99.90
40696;DHT22;40425;51.102;17.208;2022-08-20T15:18:38;27.40;99.90
40696;DHT22;40425;51.102;17.208;2022-08-20T15:23:39;26.60;99.90
40696;DHT22;40425;51.102;17.208;2022-08-20T15:28:40;25.80;99.90
40696;DHT22;40425;51.102;17.208;2022-08-20T15:33:41;25.50;99.90
40696;DHT22;40425;51.102;17.208;2022-08-20T15:38:42;25.30;99.90
40696;DHT22;40425;51.102;17.208;2022-08-20T15:43:42;25.20;99.90
40696;DHT22;40425;51.102;17.208;2022-08-20T15:48:45;24.90;99.90
40696;DHT22;40425;51.102;17.208;2022-08-20T15:54:00;24.60;99.90
40696;DHT22;40425;51.102;17.208;2022-08-20T16:04:51;23.90;99.90
40696;DHT22;40425;51.102;17.208;2022-08-20T16:15:10;23.30;99.90
40696;DHT22;40425;51.102;17.208;2022-08-20T16:20:23;23.00;99.90
40696;DHT22;40425;51.102;17.208;2022-08-20T16:25:29;22.70;99.90
40696;DHT22;40425;51.102;17.208;2022-08-20T16:30:47;22.20;99.90
40696;DHT22;40425;51.102;17.208;2022-08-20T16:36:08;22.00;99.90
40696;DHT22;40425;51.102;17.208;2022-08-20T16:46:20;21.70;99.90
40696;DHT22;40425;51.102;17.208;2022-08-20T16:51:32;21.70;99.90
40696;DHT22;40425;51.102;17.208;2022-08-20T16:56:38;21.30;99.90
40696;DHT22;40425;51.102;17.208;2022-08-20T17:01:39;21.40;99.90
40696;DHT22;40425;51.102;17.208;2022-08-20T17:06:45;21.30;99.90
40696;DHT22;40425;51.102;17.208;2022-08-20T17:11:47;21.30;99.90
40696;DHT22;40425;51.102;17.208;2022-08-20T17:16:51;21.50;99.90
40696;DHT22;40425;51.102;17.208;2022-08-20T17:21:55;21.30;99.90
40696;DHT22;40425;51.102;17.208;2022-08-20T17:27:02;21.40;99.90
40696;DHT22;40425;51.102;17.208;2022-08-20T17:32:20;21.20;99.90
40696;DHT22;40425;51.102;17.208;2022-08-20T17:37:32;21.20;99.90
40696;DHT22;40425;51.102;17.208;2022-08-20T17:47:50;21.20;99.90
40696;DHT22;40425;51.102;17.208;2022-08-20T17:59:10;21.00;99.90
40696;DHT22;40425;51.102;17.208;2022-08-20T18:04:16;21.00;99.90
40696;DHT22;40425;51.102;17.208;2022-08-20T18:14:59;20.90;99.90
40696;DHT22;40425;51.102;17.208;2022-08-20T18:26:13;20.80;99.90
40696;DHT22;40425;51.102;17.208;2022-08-20T18:31:46;20.70;99.90
40696;DHT22;40425;51.102;17.208;2022-08-20T18:37:00;20.70;99.90
40696;DHT22;40425;51.102;17.208;2022-08-20T18:42:07;20.70;99.90
40696;DHT22;40425;51.102;17.208;2022-08-20T18:52:37;20.70;99.90
40696;DHT22;40425;51.102;17.208;2022-08-20T18:58:03;20.60;99.90
40696;DHT22;40425;51.102;17.208;2022-08-20T19:03:29;20.60;99.90
40696;DHT22;40425;51.102;17.208;2022-08-20T19:08:51;20.50;99.90
40696;DHT22;40425;51.102;17.208;2022-08-20T19:19:21;20.60;99.90
40696;DHT22;40425;51.102;17.208;2022-08-20T19:24:28;20.60;99.90
40696;DHT22;40425;51.102;17.208;2022-08-20T19:34:40;20.50;99.90
40696;DHT22;40425;51.102;17.208;2022-08-20T19:39:43;20.60;99.90
40696;DHT22;40425;51.102;17.208;2022-08-20T19:55:25;20.70;99.90
40696;DHT22;40425;51.102;17.208;2022-08-20T20:00:38;20.80;99.90
40696;DHT22;40425;51.102;17.208;2022-08-20T20:05:59;20.70;99.90
40696;DHT22;40425;51.102;17.208;2022-08-20T20:11:04;20.60;99.90
40696;DHT22;40425;51.102;17.208;2022-08-20T20:16:07;20.70;99.90
40696;DHT22;40425;51.102;17.208;2022-08-20T20:21:21;20.70;99.90
40696;DHT22;40425;51.102;17.208;2022-08-20T20:26:22;20.60;99.90
40696;DHT22;40425;51.102;17.208;2022-08-20T20:31:27;20.60;99.90
40696;DHT22;40425;51.102;17.208;2022-08-20T20:36:38;20.60;99.90
40696;DHT22;40425;51.102;17.208;2022-08-20T20:41:52;20.70;99.90
40696;DHT22;40425;51.102;17.208;2022-08-20T20:47:00;20.80;99.90
40696;DHT22;40425;51.102;17.208;2022-08-20T20:52:16;20.70;99.90
40696;DHT22;40425;51.102;17.208;2022-08-20T21:02:20;20.80;99.90
40696;DHT22;40425;51.102;17.208;2022-08-20T21:07:22;20.80;99.90
40696;DHT22;40425;51.102;17.208;2022-08-20T21:12:24;20.80;99.90
40696;DHT22;40425;51.102;17.208;2022-08-20T21:17:25;20.70;99.90
40696;DHT22;40425;51.102;17.208;2022-08-20T21:22:26;20.70;99.90
40696;DHT22;40425;51.102;17.208;2022-08-20T21:27:27;20.70;99.90
40696;DHT22;40425;51.102;17.208;2022-08-20T21:32:29;20.80;99.90
40696;DHT22;40425;51.102;17.208;2022-08-20T21:37:30;20.70;99.90
40696;DHT22;40425;51.102;17.208;2022-08-20T21:42:31;20.70;99.90
40696;DHT22;40425;51.102;17.208;2022-08-20T21:47:32;20.60;99.90
40696;DHT22;40425;51.102;17.208;2022-08-20T21:52:33;20.70;99.90
40696;DHT22;40425;51.102;17.208;2022-08-20T21:57:35;20.70;99.90
40696;DHT22;40425;51.102;17.208;2022-08-20T22:02:36;20.60;99.90
40696;DHT22;40425;51.102;17.208;2022-08-20T22:07:37;20.50;99.90
40696;DHT22;40425;51.102;17.208;2022-08-20T22:12:38;20.50;99.90
40696;DHT22;40425;51.102;17.208;2022-08-20T22:17:39;20.50;99.90
40696;DHT22;40425;51.102;17.208;2022-08-20T22:22:40;20.40;99.90
40696;DHT22;40425;51.102;17.208;2022-08-20T22:27:41;20.40;99.90
40696;DHT22;40425;51.102;17.208;2022-08-20T22:32:42;20.40;99.90
40696;DHT22;40425;51.102;17.208;2022-08-20T22:37:43;20.30;99.90
40696;DHT22;40425;51.102;17.208;2022-08-20T22:42:44;20.20;99.90
40696;DHT22;40425;51.102;17.208;2022-08-20T22:47:44;20.10;99.90
40696;DHT22;40425;51.102;17.208;2022-08-20T22:52:45;20.10;99.90
40696;DHT22;40425;51.102;17.208;2022-08-20T22:57:47;20.00;99.90
40696;DHT22;40425;51.102;17.208;2022-08-20T23:02:55;20.00;99.90
40696;DHT22;40425;51.102;17.208;2022-08-20T23:07:58;20.00;99.90
40696;DHT22;40425;51.102;17.208;2022-08-20T23:12:59;20.10;99.90
40696;DHT22;40425;51.102;17.208;2022-08-20T23:18:03;20.10;99.90
40696;DHT22;40425;51.102;17.208;2022-08-20T23:23:05;20.00;99.90
40696;DHT22;40425;51.102;17.208;2022-08-20T23:28:06;20.00;99.90
40696;DHT22;40425;51.102;17.208;2022-08-20T23:33:07;20.00;99.90
40696;DHT22;40425;51.102;17.208;2022-08-20T23:38:08;20.00;99.90
40696;DHT22;40425;51.102;17.208;2022-08-20T23:43:10;20.00;99.90
40696;DHT22;40425;51.102;17.208;2022-08-20T23:48:10;20.10;99.90
40696;DHT22;40425;51.102;17.208;2022-08-20T23:53:11;20.00;99.90
40696;DHT22;40425;51.102;17.208;2022-08-20T23:58:12;20.00;99.90
